Time;durP1;ratioP1;P1;durP2;ratioP2;P2;SDS_P1;SDS_P2;PMS_P1;PMS_P2;Temp;Humidity;BMP_temperature;BMP_pressure;BME280_temperature;BME280_humidity;BME280_pressure;Samples;Min_cycle;Max_cycle;Signal;HPM_P1;HPM_P2
2022/07/09 00:03:40;;;;;;;1.85;0.30;;;17.10;99.90;;;;;;10174135;29;20066;-87
2022/07/09 00:08:43;;;;;;;2.15;0.20;;;16.90;99.90;;;;;;10180973;29;20055;-87
2022/07/09 00:13:46;;;;;;;0.73;0.30;;;16.70;99.90;;;;;;10119991;29;20047;-87
2022/07/09 00:18:48;;;;;;;0.80;0.32;;;16.70;99.90;;;;;;10126287;29;20047;-87
2022/07/09 00:23:50;;;;;;;2.95;0.52;;;16.60;99.90;;;;;;10122625;29;20420;-87
2022/07/09 00:29:02;;;;;;;3.38;0.82;;;16.60;99.90;;;;;;10070200;29;20111;-87
2022/07/09 00:34:04;;;;;;;2.38;0.40;;;16.50;99.90;;;;;;10146688;29;20051;-87
2022/07/09 00:39:06;;;;;;;1.33;0.40;;;16.50;99.90;;;;;;10178975;29;20062;-87
2022/07/09 00:44:08;;;;;;;1.45;0.52;;;16.50;99.90;;;;;;10172772;29;20430;-87
2022/07/09 00:49:10;;;;;;;2.55;0.65;;;16.50;99.90;;;;;;10071520;29;20507;-89
2022/07/09 00:54:13;;;;;;;1.05;0.40;;;16.60;99.90;;;;;;10179134;29;20091;-86
2022/07/09 00:59:17;;;;;;;3.33;0.50;;;16.40;99.90;;;;;;10182493;29;20503;-86
2022/07/09 01:04:20;;;;;;;4.60;0.50;;;16.30;99.90;;;;;;10134187;29;20470;-87
2022/07/09 01:09:22;;;;;;;0.98;0.40;;;16.40;99.90;;;;;;10147281;29;21723;-87
2022/07/09 01:14:24;;;;;;;2.75;0.60;;;16.30;99.90;;;;;;10118656;29;20056;-87
2022/07/09 01:19:28;;;;;;;1.80;0.82;;;16.20;99.90;;;;;;10139039;29;20523;-88
2022/07/09 01:24:30;;;;;;;4.85;0.70;;;16.20;99.90;;;;;;10160181;29;20059;-88
2022/07/09 01:29:32;;;;;;;1.40;0.60;;;16.20;99.90;;;;;;10163682;29;20060;-88
2022/07/09 01:34:36;;;;;;;2.70;0.60;;;16.10;99.90;;;;;;10154143;29;20094;-88
2022/07/09 01:39:49;;;;;;;1.00;0.70;;;16.00;99.90;;;;;;10158821;29;20064;-88
2022/07/09 01:44:52;;;;;;;2.70;0.63;;;15.90;99.90;;;;;;10154976;29;20090;-87
2022/07/09 01:49:54;;;;;;;2.55;0.68;;;15.70;99.90;;;;;;10168427;29;20079;-87
2022/07/09 01:54:57;;;;;;;1.52;0.47;;;15.60;99.90;;;;;;10164298;29;20055;-87
2022/07/09 01:59:59;;;;;;;1.13;0.50;;;15.60;99.90;;;;;;10180230;29;20170;-87
2022/07/09 02:05:01;;;;;;;3.05;0.70;;;15.70;99.90;;;;;;10159933;29;20060;-87
2022/07/09 02:10:04;;;;;;;4.68;1.60;;;15.70;99.90;;;;;;10173985;29;20106;-87
2022/07/09 02:15:07;;;;;;;1.63;0.50;;;15.60;99.90;;;;;;10174449;29;20060;-87
2022/07/09 02:20:11;;;;;;;3.47;0.52;;;15.50;99.90;;;;;;10176929;29;20555;-87
2022/07/09 02:25:13;;;;;;;2.55;0.70;;;15.50;99.90;;;;;;10187012;29;20067;-87
2022/07/09 02:30:16;;;;;;;3.20;0.73;;;15.60;99.90;;;;;;10146597;29;20149;-87
2022/07/09 02:35:18;;;;;;;2.38;0.63;;;15.50;99.90;;;;;;10177034;29;20051;-85
2022/07/09 02:40:19;;;;;;;1.75;0.50;;;15.40;99.90;;;;;;10131036;29;20076;-86
2022/07/09 02:45:21;;;;;;;2.78;0.90;;;15.40;99.90;;;;;;10150288;29;20407;-86
2022/07/09 02:50:23;;;;;;;4.15;0.60;;;15.40;99.90;;;;;;10161021;29;20071;-86
2022/07/09 02:55:25;;;;;;;1.10;0.75;;;15.30;99.90;;;;;;10173724;29;20059;-86
2022/07/09 03:00:27;;;;;;;4.13;0.57;;;15.30;99.90;;;;;;10177550;29;20191;-86
2022/07/09 03:05:29;;;;;;;3.40;0.80;;;15.30;99.90;;;;;;10140458;29;20064;-86
2022/07/09 03:10:31;;;;;;;3.65;0.50;;;15.20;99.90;;;;;;10159521;29;20040;-86
2022/07/09 03:15:32;;;;;;;0.65;0.50;;;15.20;99.90;;;;;;10146243;29;20159;-86
2022/07/09 03:20:36;;;;;;;2.50;0.70;;;15.20;99.90;;;;;;10146168;29;20060;-86
2022/07/09 03:25:38;;;;;;;2.45;0.88;;;15.20;99.90;;;;;;10169310;29;20062;-87
2022/07/09 03:30:39;;;;;;;1.63;0.65;;;15.10;99.90;;;;;;10158042;29;20095;-87
2022/07/09 03:35:41;;;;;;;0.88;0.70;;;15.20;99.90;;;;;;10161571;29;20139;-87
2022/07/09 03:40:43;;;;;;;0.90;0.43;;;15.20;99.90;;;;;;10150213;29;20052;-87
2022/07/09 03:45:45;;;;;;;1.83;0.50;;;15.20;99.90;;;;;;10157527;29;20478;-87
2022/07/09 03:50:47;;;;;;;1.13;0.55;;;15.20;99.90;;;;;;10161249;29;20331;-87
2022/07/09 03:55:49;;;;;;;5.90;0.77;;;15.10;99.90;;;;;;10161452;29;20079;-87
2022/07/09 04:00:52;;;;;;;1.77;0.70;;;15.10;99.90;;;;;;10161690;29;20182;-87
2022/07/09 04:05:54;;;;;;;4.25;0.93;;;15.20;99.90;;;;;;10199148;29;20079;-88
2022/07/09 04:10:56;;;;;;;2.50;0.70;;;15.20;99.90;;;;;;10195505;29;20043;-87
2022/07/09 04:15:58;;;;;;;3.85;0.50;;;15.20;99.90;;;;;;10183706;29;20059;-88
2022/07/09 04:21:00;;;;;;;4.38;0.65;;;15.30;99.90;;;;;;10169970;29;20072;-88
2022/07/09 04:26:02;;;;;;;2.00;0.60;;;15.30;99.90;;;;;;10183697;29;20071;-88
2022/07/09 04:31:04;;;;;;;1.98;0.50;;;15.20;99.90;;;;;;10181793;29;20067;-88
2022/07/09 04:36:06;;;;;;;6.00;0.80;;;15.30;99.90;;;;;;10182989;29;20051;-88
2022/07/09 04:41:08;;;;;;;6.53;0.70;;;15.40;99.90;;;;;;10183997;29;20054;-88
2022/07/09 04:46:10;;;;;;;3.40;0.63;;;15.50;99.90;;;;;;10166386;29;20075;-88
2022/07/09 04:51:12;;;;;;;4.28;0.85;;;15.70;99.90;;;;;;10179896;29;20108;-89
2022/07/09 04:56:14;;;;;;;2.58;1.10;;;15.80;99.90;;;;;;10167036;29;20138;-87
2022/07/09 05:01:16;;;;;;;7.38;1.70;;;15.90;99.90;;;;;;10187046;29;20050;-86
2022/07/09 05:06:19;;;;;;;2.45;0.73;;;16.10;99.90;;;;;;10174250;29;20088;-86
2022/07/09 05:11:21;;;;;;;2.50;0.77;;;16.20;99.90;;;;;;10186718;29;20054;-87
2022/07/09 05:16:23;;;;;;;3.83;0.80;;;16.30;99.90;;;;;;10172982;29;20091;-87
2022/07/09 05:21:25;;;;;;;4.40;1.30;;;16.50;99.90;;;;;;10186127;29;20202;-87
2022/07/09 05:26:29;;;;;;;1.98;1.13;;;16.50;99.90;;;;;;10187568;29;20062;-87
2022/07/09 05:31:31;;;;;;;2.03;0.73;;;16.60;99.90;;;;;;10176115;29;20511;-87
2022/07/09 05:36:35;;;;;;;1.63;0.68;;;16.70;99.90;;;;;;10190135;29;20059;-87
2022/07/09 05:41:37;;;;;;;1.42;0.82;;;16.70;99.90;;;;;;10195959;29;20098;-87
2022/07/09 05:46:39;;;;;;;3.08;1.00;;;16.80;99.90;;;;;;10194461;29;20091;-86
2022/07/09 05:51:41;;;;;;;2.33;0.73;;;16.90;99.90;;;;;;10166408;29;20052;-87
2022/07/09 05:56:43;;;;;;;6.13;0.80;;;17.10;99.90;;;;;;10156029;29;20438;-87
2022/07/09 06:01:45;;;;;;;1.50;0.93;;;17.20;99.90;;;;;;10163034;29;20161;-87
2022/07/09 06:06:46;;;;;;;4.80;0.98;;;17.30;99.90;;;;;;10184866;29;20233;-87
2022/07/09 06:11:48;;;;;;;1.45;0.93;;;17.50;99.90;;;;;;10183410;29;20066;-86
2022/07/09 06:16:50;;;;;;;4.13;0.80;;;17.60;99.90;;;;;;10181241;29;20052;-87
2022/07/09 06:21:52;;;;;;;2.20;0.85;;;17.70;99.90;;;;;;10167436;29;20547;-87
2022/07/09 06:26:54;;;;;;;2.88;0.70;;;17.90;99.90;;;;;;10180594;29;20062;-88
2022/07/09 06:31:59;;;;;;;1.52;0.80;;;18.20;99.90;;;;;;10146247;29;20054;-88
2022/07/09 06:37:01;;;;;;;4.33;0.83;;;18.50;99.90;;;;;;10175720;29;20063;-88
2022/07/09 06:42:05;;;;;;;2.67;0.70;;;18.70;99.90;;;;;;10192042;29;20136;-86
2022/07/09 06:49:29;;;;;;;3.42;0.90;;;19.20;99.90;;;;;;10388365;27;20367;-62
2022/07/09 06:54:31;;;;;;;6.32;0.85;;;19.40;99.90;;;;;;10412355;28;20122;-63
2022/07/09 06:59:33;;;;;;;4.90;0.90;;;19.60;99.90;;;;;;10400556;28;20052;-62
2022/07/09 07:04:35;;;;;;;3.60;0.95;;;19.90;99.90;;;;;;10399537;28;20427;-62
2022/07/09 07:09:36;;;;;;;2.90;1.10;;;20.10;99.90;;;;;;10402385;28;20046;-62
2022/07/09 07:14:38;;;;;;;2.10;1.20;;;20.30;99.90;;;;;;10456716;28;20506;-62
2022/07/09 07:19:40;;;;;;;7.40;0.80;;;20.40;99.90;;;;;;10462019;28;20047;-63
2022/07/09 07:24:42;;;;;;;5.75;0.90;;;20.70;99.90;;;;;;10463216;28;20048;-60
2022/07/09 07:29:44;;;;;;;5.03;0.70;;;20.90;99.90;;;;;;10462218;28;20078;-61
2022/07/09 07:34:46;;;;;;;5.07;0.93;;;21.20;99.90;;;;;;10462447;28;20187;-61
2022/07/09 07:39:47;;;;;;;1.48;0.70;;;21.40;99.90;;;;;;10462202;28;20052;-61
2022/07/09 07:44:49;;;;;;;3.45;0.82;;;21.50;99.90;;;;;;10459294;28;20055;-61
2022/07/09 07:49:51;;;;;;;2.00;0.50;;;21.60;99.90;;;;;;10462280;28;20045;-61
2022/07/09 07:54:53;;;;;;;3.85;0.60;;;21.60;99.90;;;;;;10460574;28;20056;-61
2022/07/09 07:59:55;;;;;;;1.05;0.50;;;21.60;99.90;;;;;;10438039;28;20372;-61
2022/07/09 08:04:57;;;;;;;3.47;0.70;;;21.60;99.90;;;;;;10435447;28;20490;-61
2022/07/09 08:09:58;;;;;;;4.82;0.60;;;21.60;99.90;;;;;;10429919;28;20041;-62
2022/07/09 08:15:00;;;;;;;6.10;0.75;;;21.60;99.90;;;;;;10435980;28;20483;-62
2022/07/09 08:20:03;;;;;;;4.55;0.50;;;21.50;99.90;;;;;;10429656;28;20049;-61
2022/07/09 08:25:05;;;;;;;1.42;0.60;;;21.60;99.90;;;;;;10432459;28;20514;-61
2022/07/09 08:30:11;;;;;;;5.65;0.57;;;21.80;99.90;;;;;;10433886;28;20048;-64
2022/07/09 08:35:13;;;;;;;5.05;0.70;;;22.00;99.90;;;;;;10433169;28;20055;-65
2022/07/09 08:40:15;;;;;;;2.28;0.50;;;22.10;99.90;;;;;;10432857;28;20068;-65
2022/07/09 08:45:18;;;;;;;3.22;0.40;;;22.60;99.90;;;;;;10431122;28;20454;-65
2022/07/09 08:50:21;;;;;;;4.45;0.52;;;22.50;99.90;;;;;;10434741;28;20491;-65
2022/07/09 08:55:23;;;;;;;4.03;0.60;;;22.60;99.90;;;;;;10413603;28;20128;-65
2022/07/09 09:00:25;;;;;;;3.40;0.60;;;22.70;99.90;;;;;;10422962;28;20055;-65
2022/07/09 09:05:26;;;;;;;2.42;0.50;;;22.60;99.90;;;;;;10429490;28;20049;-65
2022/07/09 09:10:28;;;;;;;2.58;0.45;;;22.90;99.70;;;;;;10427149;28;20510;-65
2022/07/09 09:15:30;;;;;;;0.95;0.60;;;23.00;99.70;;;;;;10430109;28;20536;-64
2022/07/09 09:20:32;;;;;;;1.20;0.52;;;23.00;99.70;;;;;;10434625;28;20060;-65
2022/07/09 09:25:34;;;;;;;5.03;0.50;;;23.30;99.50;;;;;;10433237;28;20479;-65
2022/07/09 09:30:42;;;;;;;0.35;0.20;;;23.70;98.60;;;;;;10430972;28;20057;-65
2022/07/09 09:35:44;;;;;;;0.95;0.20;;;23.60;95.00;;;;;;10434509;28;20052;-66
2022/07/09 09:40:46;;;;;;;0.68;0.20;;;23.50;94.80;;;;;;10433123;28;20056;-65
2022/07/09 09:45:51;;;;;;;1.73;0.40;;;23.60;95.10;;;;;;10432583;28;20051;-65
2022/07/09 09:50:58;;;;;;;0.52;0.30;;;22.90;95.40;;;;;;10432380;28;20479;-65
2022/07/09 09:56:00;;;;;;;1.42;0.28;;;23.30;95.70;;;;;;10430588;28;20411;-65
2022/07/09 10:01:02;;;;;;;1.42;0.70;;;23.50;94.70;;;;;;10429162;28;20044;-66
2022/07/09 10:06:04;;;;;;;1.73;0.40;;;23.30;94.80;;;;;;10426426;28;20120;-65
2022/07/09 10:11:05;;;;;;;1.70;0.68;;;23.50;94.80;;;;;;10429711;28;20053;-65
2022/07/09 10:16:07;;;;;;;4.88;0.50;;;23.20;95.20;;;;;;10430760;28;20098;-61
2022/07/09 10:21:09;;;;;;;2.08;0.52;;;23.40;95.40;;;;;;10430873;28;20045;-61
2022/07/09 10:26:11;;;;;;;3.85;0.68;;;23.70;94.40;;;;;;10429676;28;20056;-62
2022/07/09 10:31:20;;;;;;;2.17;1.13;;;24.00;93.90;;;;;;10428660;28;20053;-62
2022/07/09 10:36:22;;;;;;;2.03;0.70;;;24.00;93.80;;;;;;10427554;28;20716;-60
2022/07/09 10:41:24;;;;;;;3.40;1.00;;;24.40;93.10;;;;;;10427675;28;20041;-60
2022/07/09 10:46:25;;;;;;;3.38;0.90;;;24.60;93.00;;;;;;10426638;28;20106;-59
2022/07/09 10:51:27;;;;;;;0.60;0.50;;;24.30;93.50;;;;;;10428182;28;20076;-60
2022/07/09 10:56:29;;;;;;;2.67;0.60;;;24.80;93.00;;;;;;10424081;28;20049;-60
2022/07/09 11:01:31;;;;;;;1.25;0.50;;;25.00;92.70;;;;;;10427654;28;20057;-59
2022/07/09 11:06:32;;;;;;;2.00;0.40;;;25.30;91.60;;;;;;10425365;28;20045;-61
2022/07/09 11:11:34;;;;;;;1.45;0.35;;;25.70;90.10;;;;;;10423204;28;20048;-62
2022/07/09 11:16:36;;;;;;;3.05;0.50;;;25.70;89.80;;;;;;10425037;28;20045;-62
2022/07/09 11:21:38;;;;;;;2.25;0.50;;;25.90;87.90;;;;;;10423803;28;20053;-63
2022/07/09 11:26:40;;;;;;;1.38;0.50;;;26.40;87.10;;;;;;10429373;28;20438;-62
2022/07/09 11:31:52;;;;;;;0.65;0.40;;;26.40;84.10;;;;;;10428662;28;20058;-62
2022/07/09 11:36:55;;;;;;;0.73;0.40;;;26.40;81.20;;;;;;10434033;28;20052;-62
2022/07/09 11:41:58;;;;;;;2.72;0.40;;;26.40;80.20;;;;;;10436054;28;20064;-61
2022/07/09 11:47:09;;;;;;;3.33;1.05;;;26.30;78.40;;;;;;10432785;28;20037;-61
2022/07/09 11:52:25;;;;;;;0.60;0.60;;;26.10;82.00;;;;;;10433355;28;20057;-61
2022/07/09 11:57:28;;;;;;;0.70;0.55;;;25.60;85.10;;;;;;10429226;28;20049;-61
2022/07/09 12:02:34;;;;;;;1.00;0.50;;;25.60;85.10;;;;;;10435433;28;20079;-62
2022/07/09 12:07:36;;;;;;;1.15;0.60;;;25.70;83.80;;;;;;10434521;28;20414;-62
2022/07/09 12:12:38;;;;;;;2.25;0.55;;;25.90;83.20;;;;;;10430760;28;20106;-62
2022/07/09 12:17:40;;;;;;;0.50;0.30;;;25.80;83.50;;;;;;10427675;28;20110;-62
2022/07/09 12:22:42;;;;;;;1.40;0.60;;;25.70;83.50;;;;;;10435607;28;20056;-62
2022/07/09 12:27:43;;;;;;;1.10;0.60;;;25.90;82.90;;;;;;10431637;28;20057;-61
2022/07/09 12:32:45;;;;;;;1.38;0.50;;;25.80;82.80;;;;;;10434726;28;20423;-62
2022/07/09 12:37:47;;;;;;;0.65;0.40;;;25.80;80.90;;;;;;10432472;28;20110;-63
2022/07/09 12:42:49;;;;;;;1.83;0.40;;;26.20;79.90;;;;;;10431802;28;20049;-63
2022/07/09 12:47:52;;;;;;;0.70;0.30;;;26.60;77.50;;;;;;10430190;28;20589;-62
2022/07/09 12:52:53;;;;;;;0.60;0.30;;;26.50;75.80;;;;;;10429342;28;20640;-62
2022/07/09 12:57:55;;;;;;;0.68;0.30;;;26.20;77.20;;;;;;10429759;28;20060;-62
2022/07/09 13:02:57;;;;;;;0.98;0.40;;;26.20;75.90;;;;;;10428544;28;20056;-63
2022/07/09 13:07:58;;;;;;;1.95;0.40;;;26.80;75.50;;;;;;10430317;28;20045;-63
2022/07/09 13:13:00;;;;;;;0.80;0.30;;;26.60;75.10;;;;;;10430855;28;20049;-63
2022/07/09 13:18:02;;;;;;;0.45;0.30;;;26.40;73.90;;;;;;10433205;28;20041;-63
2022/07/09 13:23:04;;;;;;;1.08;0.40;;;26.10;74.70;;;;;;10429485;28;20049;-63
2022/07/09 13:28:06;;;;;;;0.57;0.30;;;26.40;76.60;;;;;;10430344;28;20048;-62
2022/07/09 13:33:07;;;;;;;0.45;0.30;;;26.40;76.10;;;;;;10430092;28;20075;-67
2022/07/09 13:38:09;;;;;;;0.35;0.30;;;25.60;76.90;;;;;;10426940;28;20057;-66
2022/07/09 13:43:11;;;;;;;0.28;0.20;;;25.90;76.50;;;;;;10428578;28;20442;-68
2022/07/09 13:48:12;;;;;;;0.75;0.30;;;26.50;75.00;;;;;;10430634;28;20053;-66
2022/07/09 13:53:14;;;;;;;0.35;0.30;;;27.00;74.10;;;;;;10426648;28;20052;-67
2022/07/09 13:58:16;;;;;;;0.60;0.35;;;27.60;72.30;;;;;;10430036;28;20045;-67
2022/07/09 14:03:18;;;;;;;0.52;0.28;;;27.00;73.10;;;;;;10430022;28;20586;-67
2022/07/09 14:08:22;;;;;;;0.40;0.20;;;27.20;71.40;;;;;;10430615;28;20040;-66
2022/07/09 14:13:25;;;;;;;0.25;0.25;;;26.80;67.80;;;;;;10429333;28;20521;-67
2022/07/09 14:18:28;;;;;;;0.32;0.20;;;27.10;68.80;;;;;;10426096;28;20045;-68
2022/07/09 14:23:30;;;;;;;1.17;0.30;;;27.50;68.20;;;;;;10430428;28;20052;-68
2022/07/09 14:28:32;;;;;;;0.90;0.30;;;27.90;64.50;;;;;;10428697;28;20123;-68
2022/07/09 14:33:34;;;;;;;0.52;0.30;;;28.10;65.20;;;;;;10430919;28;20048;-68
2022/07/09 14:38:36;;;;;;;0.40;0.20;;;28.70;65.50;;;;;;10429155;28;20402;-67
2022/07/09 14:43:41;;;;;;;0.50;0.30;;;27.90;66.50;;;;;;10427880;28;20052;-67
2022/07/09 14:48:42;;;;;;;1.43;0.40;;;27.30;67.50;;;;;;10430448;28;20057;-67
2022/07/09 14:53:44;;;;;;;0.40;0.40;;;28.60;66.50;;;;;;10429805;28;20052;-67
2022/07/09 14:58:46;;;;;;;1.52;0.30;;;28.70;63.10;;;;;;10428226;28;20461;-67
2022/07/09 15:03:47;;;;;;;0.35;0.30;;;28.60;64.30;;;;;;10429704;28;20091;-67
2022/07/09 15:08:49;;;;;;;1.58;0.30;;;28.40;64.70;;;;;;10433517;28;20045;-67
2022/07/09 15:13:51;;;;;;;0.40;0.20;;;27.80;64.50;;;;;;10436877;28;20052;-67
2022/07/09 15:18:52;;;;;;;1.55;0.40;;;27.20;64.30;;;;;;10436968;28;20376;-66
2022/07/09 15:23:54;;;;;;;0.80;0.30;;;26.80;65.40;;;;;;10434023;28;20130;-66
2022/07/09 15:28:56;;;;;;;0.60;0.40;;;26.30;67.50;;;;;;10433492;28;20057;-66
2022/07/09 15:33:57;;;;;;;1.45;0.40;;;26.10;68.80;;;;;;10436433;28;20056;-66
2022/07/09 15:38:59;;;;;;;2.45;0.40;;;25.90;70.00;;;;;;10434253;28;20041;-66
2022/07/09 15:44:03;;;;;;;0.60;0.30;;;25.40;71.80;;;;;;10435477;28;20462;-66
2022/07/09 15:49:05;;;;;;;1.25;0.30;;;25.40;73.10;;;;;;10436986;28;20477;-66
2022/07/09 15:54:06;;;;;;;2.72;0.40;;;25.20;74.90;;;;;;10436909;28;20064;-66
2022/07/09 15:59:09;;;;;;;3.60;0.40;;;25.00;75.70;;;;;;10435830;28;20059;-66
2022/07/09 16:04:10;;;;;;;0.43;0.30;;;24.90;76.40;;;;;;10437000;28;20676;-66
2022/07/09 16:09:12;;;;;;;0.60;0.55;;;24.70;78.20;;;;;;10436212;28;20560;-66
2022/07/09 16:14:14;;;;;;;0.75;0.40;;;24.60;78.80;;;;;;10433946;28;20049;-66
2022/07/09 16:19:16;;;;;;;1.00;0.32;;;24.50;78.50;;;;;;10428796;28;20072;-65
2022/07/09 16:24:18;;;;;;;3.17;0.40;;;24.40;79.90;;;;;;10435431;28;20480;-65
2022/07/09 16:29:20;;;;;;;1.38;0.50;;;24.00;82.60;;;;;;10434985;28;20515;-65
2022/07/09 16:34:21;;;;;;;0.70;0.50;;;23.40;90.70;;;;;;10432217;28;20075;-67
2022/07/09 16:39:23;;;;;;;1.33;0.50;;;22.60;94.00;;;;;;10430295;28;20041;-66
2022/07/09 16:44:25;;;;;;;3.17;0.77;;;22.30;96.30;;;;;;10432167;28;20053;-65
2022/07/09 16:49:26;;;;;;;2.45;0.40;;;22.10;97.70;;;;;;10433259;28;20061;-65
2022/07/09 16:54:48;;;;;;;0.98;0.60;;;21.90;98.40;;;;;;10432316;28;20106;-66
2022/07/09 16:59:50;;;;;;;0.80;0.52;;;21.90;99.50;;;;;;10429693;28;20056;-66
2022/07/09 17:05:13;;;;;;;0.40;0.40;;;21.80;99.90;;;;;;10429191;28;20049;-66
2022/07/09 17:10:15;;;;;;;0.60;0.50;;;21.70;99.90;;;;;;10426071;28;20120;-66
2022/07/09 17:15:17;;;;;;;0.70;0.50;;;21.60;99.90;;;;;;10427710;28;20133;-66
2022/07/09 17:20:19;;;;;;;0.88;0.50;;;21.30;99.90;;;;;;10431810;28;20070;-66
2022/07/09 17:25:21;;;;;;;2.25;0.70;;;21.30;99.90;;;;;;10429140;28;20055;-66
2022/07/09 17:30:23;;;;;;;1.98;0.70;;;21.40;99.90;;;;;;10439577;28;20041;-66
2022/07/09 17:35:25;;;;;;;0.65;0.52;;;21.30;99.90;;;;;;10430108;28;20049;-65
2022/07/09 17:40:27;;;;;;;2.10;0.60;;;21.60;99.90;;;;;;10427616;28;20061;-65
2022/07/09 17:45:29;;;;;;;1.20;0.50;;;21.70;99.90;;;;;;10426614;28;20044;-64
2022/07/09 17:50:31;;;;;;;0.47;0.40;;;21.70;99.90;;;;;;10426901;28;20391;-65
2022/07/09 17:55:33;;;;;;;1.15;0.70;;;21.60;99.90;;;;;;10422783;28;20533;-65
2022/07/09 18:00:37;;;;;;;1.55;0.50;;;21.90;99.90;;;;;;10430850;28;20736;-66
2022/07/09 18:05:39;;;;;;;1.58;0.80;;;22.20;99.90;;;;;;10429546;28;20133;-66
2022/07/09 18:10:43;;;;;;;1.55;0.60;;;22.50;99.90;;;;;;10429370;28;20064;-66
2022/07/09 18:15:44;;;;;;;1.60;0.70;;;22.40;99.90;;;;;;10426037;28;20758;-67
2022/07/09 18:20:46;;;;;;;1.45;0.60;;;22.60;99.90;;;;;;10428471;28;20049;-67
2022/07/09 18:25:48;;;;;;;2.22;0.60;;;22.60;99.90;;;;;;10426756;28;20037;-65
2022/07/09 18:30:49;;;;;;;1.10;0.52;;;22.50;99.90;;;;;;10429078;28;20041;-66
2022/07/09 18:35:51;;;;;;;1.70;0.88;;;22.40;99.90;;;;;;10428502;28;20048;-67
2022/07/09 18:40:53;;;;;;;0.70;0.60;;;22.30;99.90;;;;;;10425844;28;20138;-63
2022/07/09 18:45:55;;;;;;;3.00;0.70;;;22.30;99.90;;;;;;10427341;28;20081;-65
2022/07/09 18:50:56;;;;;;;2.70;0.70;;;22.00;99.90;;;;;;10423670;28;20143;-66
2022/07/09 18:55:58;;;;;;;2.22;0.60;;;21.70;99.90;;;;;;10426792;28;20041;-72
2022/07/09 19:01:00;;;;;;;2.35;0.70;;;21.40;99.90;;;;;;10419233;28;20049;-66
2022/07/09 19:06:02;;;;;;;0.73;0.60;;;21.30;99.90;;;;;;10430219;28;20446;-65
2022/07/09 19:11:05;;;;;;;0.70;0.60;;;21.00;99.90;;;;;;10425203;28;20049;-65
2022/07/09 19:16:07;;;;;;;1.25;0.77;;;20.80;99.90;;;;;;10430402;28;20457;-65
2022/07/09 19:21:09;;;;;;;1.13;0.52;;;20.70;99.90;;;;;;10422924;28;20510;-64
2022/07/09 19:26:12;;;;;;;1.77;0.60;;;20.60;99.90;;;;;;10428366;28;20041;-65
2022/07/09 19:36:41;;;;;;;0.73;0.50;;;20.30;99.90;;;;;;10427213;28;20036;-63
2022/07/09 19:41:49;;;;;;;3.60;1.65;;;20.30;99.90;;;;;;10429425;28;20138;-65
2022/07/09 19:46:52;;;;;;;1.38;1.00;;;20.20;99.90;;;;;;10431395;28;20518;-64
2022/07/09 19:51:55;;;;;;;2.08;0.68;;;20.10;99.90;;;;;;10428298;28;20045;-64
2022/07/09 19:56:56;;;;;;;1.38;0.90;;;19.90;99.90;;;;;;10436450;28;20508;-65
2022/07/09 20:01:58;;;;;;;1.23;0.70;;;19.90;99.90;;;;;;10440073;28;20053;-65
2022/07/09 20:07:00;;;;;;;1.30;0.82;;;19.80;99.90;;;;;;10437182;28;20036;-67
2022/07/09 20:12:02;;;;;;;2.58;0.90;;;19.70;99.90;;;;;;10436860;28;20059;-64
2022/07/09 20:17:04;;;;;;;1.98;0.85;;;19.60;99.90;;;;;;10439023;28;20041;-65
2022/07/09 20:22:06;;;;;;;1.08;0.75;;;19.50;99.90;;;;;;10440026;28;20040;-65
2022/07/09 20:27:08;;;;;;;6.68;0.95;;;19.40;99.90;;;;;;10437246;28;20048;-64
2022/07/09 20:32:09;;;;;;;2.45;0.80;;;19.30;99.90;;;;;;10439218;28;20044;-65
2022/07/09 20:37:11;;;;;;;1.25;0.82;;;19.20;99.90;;;;;;10436608;28;20045;-65
2022/07/09 20:42:13;;;;;;;1.20;0.77;;;19.10;99.90;;;;;;10436847;28;20997;-64
2022/07/09 20:47:14;;;;;;;5.72;1.58;;;19.00;99.90;;;;;;10435114;28;20048;-65
2022/07/09 20:52:16;;;;;;;3.90;1.17;;;19.00;99.90;;;;;;10432533;28;20106;-64
2022/07/09 20:57:18;;;;;;;2.78;1.38;;;19.00;99.90;;;;;;10416194;28;20078;-64
2022/07/09 21:02:20;;;;;;;5.50;2.42;;;18.90;99.90;;;;;;10422743;28;20519;-64
2022/07/09 21:07:22;;;;;;;1.40;0.60;;;18.80;99.90;;;;;;10430064;28;20044;-64
2022/07/09 21:12:23;;;;;;;2.78;0.98;;;18.70;99.90;;;;;;10433067;28;20037;-65
2022/07/09 21:22:46;;;;;;;2.15;1.50;;;18.50;99.90;;;;;;10427073;28;20132;-65
2022/07/09 21:27:49;;;;;;;4.00;0.90;;;18.40;99.90;;;;;;10432260;28;20068;-65
2022/07/09 21:32:50;;;;;;;1.63;0.88;;;18.40;99.90;;;;;;10428429;28;20045;-64
2022/07/09 21:37:52;;;;;;;0.98;0.70;;;18.40;99.90;;;;;;10433640;28;20084;-64
2022/07/09 21:42:54;;;;;;;1.17;0.70;;;18.30;99.90;;;;;;10434537;28;20060;-65
2022/07/09 21:47:56;;;;;;;1.58;0.90;;;18.20;99.90;;;;;;10431782;28;20443;-65
2022/07/09 21:52:58;;;;;;;2.60;0.70;;;18.10;99.90;;;;;;10432121;28;20056;-65
2022/07/09 21:57:59;;;;;;;2.40;0.70;;;18.00;99.90;;;;;;10433194;28;20049;-65
2022/07/09 22:03:01;;;;;;;1.52;0.80;;;18.00;99.90;;;;;;10431336;28;20052;-64
2022/07/09 22:08:03;;;;;;;1.98;0.88;;;18.00;99.90;;;;;;10429431;28;20124;-64
2022/07/09 22:13:05;;;;;;;0.73;0.60;;;18.00;99.90;;;;;;10429931;28;20049;-64
2022/07/09 22:18:07;;;;;;;0.85;0.60;;;17.90;99.90;;;;;;10429800;28;20045;-64
2022/07/09 22:23:09;;;;;;;3.33;0.77;;;17.80;99.90;;;;;;10430180;28;20048;-64
2022/07/09 22:28:11;;;;;;;1.85;0.52;;;17.80;99.90;;;;;;10427178;28;20103;-65
2022/07/09 22:33:13;;;;;;;0.68;0.55;;;17.80;99.90;;;;;;10427713;28;20049;-65
2022/07/09 22:38:14;;;;;;;1.95;0.57;;;17.80;99.90;;;;;;10424261;28;20053;-64
2022/07/09 22:43:16;;;;;;;0.70;0.43;;;17.90;99.90;;;;;;10427591;28;20045;-65
2022/07/09 22:48:18;;;;;;;2.05;0.60;;;17.90;99.90;;;;;;10430653;28;20053;-66
2022/07/09 22:53:20;;;;;;;0.85;0.55;;;17.90;99.90;;;;;;10429452;28;20102;-65
2022/07/09 22:58:21;;;;;;;1.58;0.40;;;17.90;99.90;;;;;;10428506;28;20048;-65
2022/07/09 23:03:23;;;;;;;4.28;0.60;;;17.90;99.90;;;;;;10419769;28;20055;-65
2022/07/09 23:13:45;;;;;;;3.50;0.50;;;17.90;99.90;;;;;;10425940;28;20045;-64
2022/07/09 23:18:47;;;;;;;0.80;0.38;;;17.90;99.90;;;;;;10444659;28;20053;-65
2022/07/09 23:23:49;;;;;;;1.70;0.50;;;17.90;99.90;;;;;;10425751;28;20046;-64
2022/07/09 23:28:51;;;;;;;1.10;0.40;;;17.90;99.90;;;;;;10429644;28;20056;-63
2022/07/09 23:33:53;;;;;;;1.30;0.45;;;17.90;99.90;;;;;;10428523;28;20047;-62
2022/07/09 23:38:55;;;;;;;0.70;0.40;;;17.80;99.90;;;;;;10431754;28;20491;-62
2022/07/09 23:43:57;;;;;;;3.75;0.40;;;17.70;99.90;;;;;;10435854;28;20114;-62
2022/07/09 23:48:58;;;;;;;1.73;0.25;;;17.60;99.90;;;;;;10436147;28;20057;-62
2022/07/09 23:54:00;;;;;;;1.95;0.30;;;17.50;99.90;;;;;;10433468;28;20060;-63
2022/07/09 23:59:02;;;;;;;3.65;0.38;;;17.40;99.90;;;;;;10434796;28;20053;-63
